Gypsum, Colorado
Current Conditions -  °F | °C
As of 2:55 AM on Sunday 23 Nov 2014 (Local Time) from KEGE Reporting Station
Overcast Overcast  
Wind Chill: 26°   Ceiling: 4800
Heat Index: 32°   Visibility: 10mi
Dew Point: 30°   Wind: 6mph
Humidity: 93%   Direction: 80°E
Pressure: 29.78"   Gusts: NA
Location:  39.65°N, 106.95°W
Report Text: KEGE 230955Z AUTO 08005KT 10SM FEW040 BKN048 OVC110 00/M01 A2978 RMK AO1
Loading
Personal Weather Stations






























Interactive Weather Map New forecast layout! Learn more

10-Day Weather Forecast

Advertisements
Track Severe Weather on mobile